createdAt,value
2022-08-04T00:04:29.550Z,48.80
2022-08-04T00:10:35.459Z,49.64
2022-08-04T00:16:42.900Z,48.87
2022-08-04T00:22:48.242Z,48.94
2022-08-04T00:28:52.445Z,49.47
2022-08-04T00:34:58.929Z,49.74
2022-08-04T00:41:21.018Z,49.56
2022-08-04T00:47:41.007Z,49.67
2022-08-04T00:54:03.178Z,49.59
2022-08-04T01:00:09.804Z,49.37
2022-08-04T01:06:24.894Z,49.84
2022-08-04T01:12:53.689Z,49.46
2022-08-04T01:19:01.221Z,49.17
2022-08-04T01:25:25.598Z,49.22
2022-08-04T01:31:48.039Z,48.99
2022-08-04T01:38:02.376Z,49.30
2022-08-04T01:44:24.942Z,49.10
2022-08-04T01:50:36.716Z,49.06
2022-08-04T01:56:43.543Z,49.81
2022-08-04T02:02:47.970Z,49.61
2022-08-04T02:09:03.164Z,49.28
2022-08-04T02:15:15.077Z,49.54
2022-08-04T02:21:21.838Z,49.84
2022-08-04T02:28:00.291Z,49.78
2022-08-04T02:34:02.581Z,49.65
2022-08-04T02:40:08.504Z,49.94
2022-08-04T02:46:18.056Z,50.02
2022-08-04T02:52:22.504Z,49.97
2022-08-04T02:58:31.177Z,50.23
2022-08-04T03:04:52.327Z,50.82
2022-08-04T03:11:29.827Z,50.63
2022-08-04T03:18:10.009Z,50.51
2022-08-04T03:24:31.937Z,50.99
2022-08-04T03:30:52.215Z,51.15
2022-08-04T03:37:30.781Z,51.20
2022-08-04T03:44:18.333Z,50.93
2022-08-04T03:51:10.358Z,51.61
2022-08-04T03:58:21.465Z,51.39
2022-08-04T04:04:57.722Z,51.03
2022-08-04T04:11:31.593Z,51.56
2022-08-04T04:17:55.516Z,51.44
2022-08-04T04:24:15.651Z,51.72
2022-08-04T04:30:25.942Z,51.86
2022-08-04T04:36:41.932Z,52.20
2022-08-04T04:43:10.911Z,52.56
2022-08-04T04:49:26.935Z,52.73
2022-08-04T04:55:35.342Z,52.62
2022-08-04T05:02:08.662Z,52.87
2022-08-04T05:08:45.204Z,53.05
2022-08-04T05:14:53.089Z,53.20
2022-08-04T05:21:05.472Z,53.08
2022-08-04T05:27:15.590Z,53.45
2022-08-04T05:33:29.148Z,53.43
2022-08-04T05:39:37.381Z,52.97
2022-08-04T05:45:42.655Z,53.57
2022-08-04T05:51:47.879Z,54.34
2022-08-04T05:57:55.802Z,53.26
2022-08-04T06:04:01.168Z,53.77
2022-08-04T06:10:05.215Z,53.72
2022-08-04T06:16:28.475Z,53.86
2022-08-04T06:22:35.535Z,54.72
2022-08-04T06:28:39.839Z,53.90
2022-08-04T06:34:45.490Z,54.21
2022-08-04T06:40:49.231Z,54.53
2022-08-04T06:46:53.764Z,53.97
2022-08-04T06:52:59.046Z,53.96
2022-08-04T06:59:04.088Z,54.13
2022-08-04T07:05:08.949Z,53.49
2022-08-04T07:11:14.686Z,53.10
2022-08-04T07:17:20.092Z,53.47
2022-08-04T07:23:25.452Z,53.69
2022-08-04T07:29:30.739Z,53.21
2022-08-04T07:36:05.661Z,53.11
2022-08-04T07:42:02.619Z,53.24
2022-08-04T07:48:08.352Z,53.53
2022-08-04T07:54:12.235Z,53.19
2022-08-04T08:00:16.278Z,53.51
2022-08-04T08:06:32.729Z,53.35
2022-08-04T08:12:50.649Z,53.33
2022-08-04T08:18:56.282Z,53.84
2022-08-04T08:25:01.428Z,53.35
2022-08-04T08:31:07.195Z,54.09
2022-08-04T08:37:15.237Z,54.06
2022-08-04T08:44:03.942Z,53.83
2022-08-04T08:50:18.802Z,53.27
2022-08-04T08:56:35.068Z,53.89
2022-08-04T09:03:13.960Z,53.33
2022-08-04T09:09:44.779Z,53.49
2022-08-04T09:15:55.702Z,53.52
2022-08-04T09:22:06.603Z,53.45
2022-08-04T09:28:43.802Z,52.55
2022-08-04T09:35:03.712Z,52.99
2022-08-04T09:41:48.525Z,52.28
2022-08-04T09:47:56.086Z,52.50
2022-08-04T09:54:30.831Z,51.96
2022-08-04T10:00:43.843Z,51.79
2022-08-04T10:07:02.527Z,51.68
2022-08-04T10:13:19.171Z,50.95
2022-08-04T10:19:28.285Z,50.70
2022-08-04T10:26:07.126Z,50.06
2022-08-04T10:32:17.137Z,49.63
2022-08-04T10:38:26.979Z,49.54
2022-08-04T10:44:42.619Z,49.51
2022-08-04T10:50:58.338Z,49.36
2022-08-04T10:57:09.903Z,48.87
2022-08-04T11:03:23.122Z,48.53
2022-08-04T11:09:27.151Z,48.03
2022-08-04T11:15:37.948Z,48.19
2022-08-04T11:21:48.698Z,48.40
2022-08-04T11:28:01.364Z,48.10
2022-08-04T11:34:15.041Z,47.65
2022-08-04T11:40:24.898Z,47.43
2022-08-04T11:46:37.051Z,47.71
2022-08-04T11:52:44.187Z,48.02
2022-08-04T11:58:50.588Z,47.95
2022-08-04T12:04:58.697Z,47.13
2022-08-04T12:11:14.049Z,47.35
2022-08-04T12:17:26.646Z,47.38
2022-08-04T12:23:41.063Z,46.79
2022-08-04T12:30:54.024Z,46.59
2022-08-04T12:36:21.558Z,46.86
2022-08-04T12:42:31.170Z,45.08
2022-08-04T12:48:38.137Z,45.57
2022-08-04T12:54:46.625Z,46.15
2022-08-04T13:00:55.784Z,45.71
2022-08-04T13:07:07.936Z,45.74
2022-08-04T13:13:18.558Z,45.23
2022-08-04T13:19:22.618Z,44.89
2022-08-04T13:26:43.533Z,44.07
2022-08-04T13:31:56.855Z,43.64
2022-08-04T13:38:01.870Z,43.98
2022-08-04T13:44:17.577Z,43.84
2022-08-04T13:50:27.692Z,44.26
2022-08-04T13:56:37.555Z,43.45
2022-08-04T14:02:46.142Z,42.78
2022-08-04T14:08:54.392Z,42.27
2022-08-04T14:14:57.932Z,42.17
2022-08-04T14:21:04.810Z,43.14
2022-08-04T14:27:09.784Z,43.13
2022-08-04T14:34:04.788Z,42.47
2022-08-04T14:39:39.607Z,41.63
2022-08-04T14:45:54.616Z,42.46
2022-08-04T14:52:03.088Z,42.27
2022-08-04T14:58:34.799Z,42.61
2022-08-04T15:04:32.935Z,42.40
2022-08-04T15:10:36.501Z,42.42
2022-08-04T15:16:54.084Z,43.05
2022-08-04T15:22:59.549Z,43.23
2022-08-04T15:29:16.227Z,43.08
2022-08-04T15:35:38.852Z,43.73
2022-08-04T15:41:55.544Z,43.87
2022-08-04T15:48:30.861Z,44.32
2022-08-04T15:54:36.146Z,44.63
2022-08-04T16:01:17.347Z,44.70
2022-08-04T16:07:20.944Z,43.93
2022-08-04T16:13:25.270Z,44.18
2022-08-04T16:19:48.833Z,44.32
2022-08-04T16:25:52.790Z,44.44
2022-08-04T16:32:19.694Z,44.42
2022-08-04T16:38:25.026Z,44.43
2022-08-04T16:44:52.216Z,44.75
2022-08-04T16:51:05.879Z,44.73
2022-08-04T16:57:11.488Z,44.87
2022-08-04T17:03:15.106Z,45.36
2022-08-04T17:09:22.461Z,45.49
2022-08-04T17:15:30.527Z,45.95
2022-08-04T17:21:37.197Z,45.53
2022-08-04T17:28:08.930Z,46.02
2022-08-04T17:34:15.679Z,46.21
2022-08-04T17:40:25.750Z,46.73
2022-08-04T17:46:36.977Z,47.39
2022-08-04T17:52:44.602Z,47.65
2022-08-04T17:59:07.307Z,48.48
2022-08-04T18:05:12.236Z,47.60
2022-08-04T18:11:22.175Z,49.78
2022-08-04T18:18:22.177Z,51.20
2022-08-04T18:23:57.066Z,51.01
2022-08-04T18:30:33.288Z,50.96
2022-08-04T18:36:34.273Z,50.66
2022-08-04T18:42:41.129Z,50.83
2022-08-04T18:48:52.613Z,50.65
2022-08-04T18:54:56.296Z,50.42
2022-08-04T19:01:13.579Z,49.83
2022-08-04T19:07:29.264Z,49.88
2022-08-04T19:13:35.817Z,49.76
2022-08-04T19:19:49.741Z,49.63
2022-08-04T19:26:02.582Z,48.63
2022-08-04T19:32:14.029Z,48.94
2022-08-04T19:38:20.695Z,48.22
2022-08-04T19:44:29.996Z,48.14
2022-08-04T19:50:34.916Z,47.92
2022-08-04T19:56:39.862Z,47.54
2022-08-04T20:02:45.665Z,47.28
2022-08-04T20:08:49.609Z,47.52
2022-08-04T20:14:53.199Z,47.48
2022-08-04T20:21:00.238Z,47.40
2022-08-04T20:27:07.843Z,47.45
2022-08-04T20:33:15.300Z,46.63
2022-08-04T20:39:22.648Z,47.37
2022-08-04T20:45:55.784Z,47.45
2022-08-04T20:51:50.401Z,47.22
2022-08-04T20:58:00.840Z,47.20
2022-08-04T21:10:47.849Z,46.40
2022-08-04T21:16:54.092Z,46.92
2022-08-04T21:23:02.039Z,46.00
2022-08-04T21:29:06.510Z,46.47
2022-08-04T21:35:16.143Z,46.53
2022-08-04T21:41:24.145Z,46.67
2022-08-04T21:47:46.734Z,46.82
2022-08-04T21:53:54.739Z,46.64
2022-08-04T21:59:58.466Z,46.66
2022-08-04T22:06:03.636Z,46.95
2022-08-04T22:12:10.456Z,46.16
2022-08-04T22:18:15.691Z,45.76
2022-08-04T22:24:19.339Z,46.02
2022-08-04T22:30:29.200Z,45.90
2022-08-04T22:36:36.854Z,46.49
2022-08-04T22:42:40.937Z,45.87
2022-08-04T22:48:45.955Z,45.72
2022-08-04T22:54:50.795Z,46.41
2022-08-04T23:00:58.401Z,46.51
2022-08-04T23:07:09.563Z,46.74
2022-08-04T23:13:13.745Z,46.83
2022-08-04T23:19:19.564Z,46.88
2022-08-04T23:25:32.852Z,47.64
2022-08-04T23:31:59.113Z,47.37
2022-08-04T23:38:31.271Z,47.45
2022-08-04T23:44:28.333Z,48.07
2022-08-04T23:50:32.649Z,48.45
2022-08-04T23:56:38.037Z,48.74
